Terminal Aerodrome Forecast
Issued by NWS

Home | Current Version | Previous Version | Text Only | Print | Product List | Glossary On
Versions: 1 2 3 4 5 6 7 8 9 10 11 12
000
FTUS43 KLSX 211700
TAFCPS
TAF
KCPS 211736Z 2118/2218 12009KT P6SM SKC
     FM212000 13011KT P6SM OVC040
     FM220000 16010KT P6SM VCSH OVC025
     FM220500 18010KT P6SM OVC020 WS020/21045KT
     FM221400 19012KT P6SM VCSH SCT025 OVC035=

USA.gov is the U.S. government's official web portal to all federal, state and local government web resources and services.